^^
Meteo Knjazevac Station Historical Data
Daily Summary for July 03, 2022 Units:  Both    English   Metric
Daily Weekly Monthly Yearly Custom
  High: Low: Average:
Temperature: 75.7 °F /  24.3 °C 61.9 °F /  16.6 °C 65 °F /  18.3 °C
Dew Point: 69.5 °F /  20.8 °C 61.6 °F /  16.4 °C 63.8 °F /  17.7 °C
Humidity: 99% 81% 96%
Wind Speed: 5mph /  8km/h - 1.5mph /  2.4km/h
Wind Gust: 7mph /  11.3km/h - -
Wind- - West
Pressure: 30.15 in /  1020.9 hPa 30.14 in /  1020.5 hPa -
Precipitation: 0.00 in /  0 mm    
Historical Graphs
 
 
Tabular Data for July 03, 2022
Time Temperature Dew Point Pressure Wind Wind Speed Wind Gust Humidity Rainfall Rate (Hourly) solar Conditions
00:10 66.4 °F /  19.1 °C 64.9 °F /  18.3 °C 30.15in /  1020.9hPa WNW 2mph /  3.2km/h 3mph /  4.8km/h 95% 0.00in /  0mm 0 W/m2
00:20 66 °F /  18.9 °C 64.5 °F /  18.1 °C 30.15in /  1020.9hPa WNW 1mph /  1.6km/h 3mph /  4.8km/h 95% 0.00in /  0mm 0 W/m2
00:40 65.8 °F /  18.8 °C 64.4 °F /  18 °C 30.15in /  1020.9hPa West 1mph /  1.6km/h 2mph /  3.2km/h 95% 0.00in /  0mm 0 W/m2
00:50 65.7 °F /  18.7 °C 64.2 °F /  17.9 °C 30.15in /  1020.9hPa Calm   2mph /  3.2km/h 95% 0.00in /  0mm 0 W/m2
01:00 65.7 °F /  18.7 °C 64.2 °F /  17.9 °C 30.15in /  1020.9hPa West 1mph /  1.6km/h 2mph /  3.2km/h 95% 0.00in /  0mm 0 W/m2
01:10 65.5 °F /  18.6 °C 64 °F /  17.8 °C 30.15in /  1020.9hPa SW 1mph /  1.6km/h 2mph /  3.2km/h 95% 0.00in /  0mm 0 W/m2
01:20 65.1 °F /  18.4 °C 64 °F /  17.8 °C 30.15in /  1020.9hPa West 3mph /  4.8km/h 5mph /  8km/h 96% 0.00in /  0mm 0 W/m2
01:40 64.8 °F /  18.2 °C 63.6 °F /  17.6 °C 30.15in /  1020.9hPa Calm   3mph /  4.8km/h 96% 0.00in /  0mm 0 W/m2
02:00 64.4 °F /  18 °C 63.2 °F /  17.3 °C 30.15in /  1020.9hPa NW 1mph /  1.6km/h 2mph /  3.2km/h 96% 0.00in /  0mm 0 W/m2
02:10 64.4 °F /  18 °C 63.2 °F /  17.3 °C 30.15in /  1020.9hPa WSW 1mph /  1.6km/h 2mph /  3.2km/h 96% 0.00in /  0mm 0 W/m2
02:20 64.2 °F /  17.9 °C 63.1 °F /  17.3 °C 30.15in /  1020.9hPa WSW 1mph /  1.6km/h 2mph /  3.2km/h 96% 0.00in /  0mm 0 W/m2
02:30 64 °F /  17.8 °C 62.9 °F /  17.2 °C 30.15in /  1020.9hPa West 1mph /  1.6km/h 2mph /  3.2km/h 96% 0.00in /  0mm 0 W/m2
02:40 63.9 °F /  17.7 °C 62.7 °F /  17.1 °C 30.15in /  1020.9hPa SW 1mph /  1.6km/h 2mph /  3.2km/h 96% 0.00in /  0mm 0 W/m2
02:50 63.7 °F /  17.6 °C 62.5 °F /  16.9 °C 30.15in /  1020.9hPa West 1mph /  1.6km/h 2mph /  3.2km/h 96% 0.00in /  0mm 0 W/m2
03:00 63.5 °F /  17.5 °C 62.9 °F /  17.2 °C 30.14in /  1020.5hPa West 2mph /  3.2km/h 3mph /  4.8km/h 98% 0.00in /  0mm 0 W/m2
03:10 63.5 °F /  17.5 °C 62.9 °F /  17.2 °C 30.14in /  1020.5hPa WSW 2mph /  3.2km/h 4mph /  6.4km/h 98% 0.00in /  0mm 0 W/m2
03:20 63.3 °F /  17.4 °C 62.7 °F /  17.1 °C 30.14in /  1020.5hPa West 2mph /  3.2km/h 4mph /  6.4km/h 98% 0.00in /  0mm 0 W/m2
03:30 63.1 °F /  17.3 °C 62.6 °F /  17 °C 30.14in /  1020.5hPa West 2mph /  3.2km/h 4mph /  6.4km/h 98% 0.00in /  0mm 0 W/m2
03:40 63.1 °F /  17.3 °C 62.6 °F /  17 °C 30.14in /  1020.5hPa West 1mph /  1.6km/h 3mph /  4.8km/h 98% 0.00in /  0mm 0 W/m2
03:50 63 °F /  17.2 °C 62.4 °F /  16.9 °C 30.14in /  1020.5hPa West 1mph /  1.6km/h 3mph /  4.8km/h 98% 0.00in /  0mm 0 W/m2
04:10 62.8 °F /  17.1 °C 62.5 °F /  16.9 °C 30.14in /  1020.5hPa Calm   3mph /  4.8km/h 99% 0.00in /  0mm 0 W/m2
04:20 62.8 °F /  17.1 °C 62.5 °F /  16.9 °C 30.14in /  1020.5hPa WNW 1mph /  1.6km/h 2mph /  3.2km/h 99% 0.00in /  0mm 0 W/m2
04:30 62.4 °F /  16.9 °C 61.8 °F /  16.6 °C 30.14in /  1020.5hPa West 3mph /  4.8km/h 5mph /  8km/h 98% 0.00in /  0mm 0 W/m2
04:50 62.1 °F /  16.7 °C 61.8 °F /  16.6 °C 30.14in /  1020.5hPa West 5mph /  8km/h 7mph /  11.3km/h 99% 0.00in /  0mm 0 W/m2
05:00 62.1 °F /  16.7 °C 61.8 °F /  16.6 °C 30.14in /  1020.5hPa WSW 2mph /  3.2km/h 5mph /  8km/h 99% 0.00in /  0mm 3 W/m2
05:20 62.1 °F /  16.7 °C 61.8 °F /  16.6 °C 30.14in /  1020.5hPa NNW 1mph /  1.6km/h 2mph /  3.2km/h 99% 0.00in /  0mm 13 W/m2
05:40 61.9 °F /  16.6 °C 61.6 °F /  16.4 °C 30.15in /  1020.9hPa WNW 1mph /  1.6km/h 5mph /  8km/h 99% 0.00in /  0mm 36 W/m2
05:50 61.9 °F /  16.6 °C 61.6 °F /  16.4 °C 30.15in /  1020.9hPa West 3mph /  4.8km/h 5mph /  8km/h 99% 0.00in /  0mm 47 W/m2
06:00 62.1 °F /  16.7 °C 61.8 °F /  16.6 °C 30.15in /  1020.9hPa West 1mph /  1.6km/h 4mph /  6.4km/h 99% 0.00in /  0mm 64 W/m2
06:10 62.2 °F /  16.8 °C 62 °F /  16.7 °C 30.15in /  1020.9hPa West 2mph /  3.2km/h 5mph /  8km/h 99% 0.00in /  0mm 70 W/m2
06:20 62.6 °F /  17 °C 62.3 °F /  16.8 °C 30.15in /  1020.9hPa WSW 2mph /  3.2km/h 4mph /  6.4km/h 99% 0.00in /  0mm 115 W/m2
06:30 62.8 °F /  17.1 °C 62.5 °F /  16.9 °C 30.15in /  1020.9hPa WSW 2mph /  3.2km/h 3mph /  4.8km/h 99% 0.00in /  0mm 140 W/m2
06:40 63.3 °F /  17.4 °C 63 °F /  17.2 °C 30.15in /  1020.9hPa WNW 2mph /  3.2km/h 4mph /  6.4km/h 99% 0.00in /  0mm 163 W/m2
06:50 63.7 °F /  17.6 °C 63.4 °F /  17.4 °C 30.14in /  1020.5hPa West 2mph /  3.2km/h 3mph /  4.8km/h 99% 0.00in /  0mm 190 W/m2
07:00 64.2 °F /  17.9 °C 63.9 °F /  17.7 °C 30.15in /  1020.9hPa WNW 1mph /  1.6km/h 3mph /  4.8km/h 99% 0.00in /  0mm 219 W/m2
07:10 64.6 °F /  18.1 °C 64.3 °F /  17.9 °C 30.14in /  1020.5hPa NW 2mph /  3.2km/h 3mph /  4.8km/h 99% 0.00in /  0mm 253 W/m2
07:20 65.3 °F /  18.5 °C 65 °F /  18.3 °C 30.14in /  1020.5hPa NW 2mph /  3.2km/h 4mph /  6.4km/h 99% 0.00in /  0mm 288 W/m2
07:30 66.2 °F /  19 °C 65.7 °F /  18.7 °C 30.14in /  1020.5hPa NW 1mph /  1.6km/h 4mph /  6.4km/h 98% 0.00in /  0mm 312 W/m2
07:40 67 °F /  19.4 °C 65.8 °F /  18.8 °C 30.14in /  1020.5hPa West 2mph /  3.2km/h 4mph /  6.4km/h 96% 0.00in /  0mm 333 W/m2
07:50 67.8 °F /  19.9 °C 66.3 °F /  19.1 °C 30.15in /  1020.9hPa West 2mph /  3.2km/h 5mph /  8km/h 95% 0.00in /  0mm 374 W/m2
08:00 68.6 °F /  20.3 °C 66.5 °F /  19.2 °C 30.14in /  1020.5hPa West 2mph /  3.2km/h 4mph /  6.4km/h 93% 0.00in /  0mm 420 W/m2
08:10 69.4 °F /  20.8 °C 66.7 °F /  19.3 °C 30.14in /  1020.5hPa WNW 1mph /  1.6km/h 5mph /  8km/h 91% 0.00in /  0mm 453 W/m2
08:20 70.6 °F /  21.4 °C 67.5 °F /  19.7 °C 30.14in /  1020.5hPa WNW 2mph /  3.2km/h 4mph /  6.4km/h 90% 0.00in /  0mm 474 W/m2
08:30 72.5 °F /  22.5 °C 68.7 °F /  20.4 °C 30.14in /  1020.5hPa SW 1mph /  1.6km/h 3mph /  4.8km/h 88% 0.00in /  0mm 506 W/m2
08:40 74.2 °F /  23.4 °C 69 °F /  20.6 °C 30.14in /  1020.5hPa SW 2mph /  3.2km/h 3mph /  4.8km/h 84% 0.00in /  0mm 544 W/m2
08:50 75.7 °F /  24.3 °C 69.5 °F /  20.8 °C 30.14in /  1020.5hPa SSW 1mph /  1.6km/h 4mph /  6.4km/h 81% 0.00in /  0mm 576 W/m2
Knjazevac, Serbia
Compliments of Weather Underground - 2 mb